Berlin, New Hampshire
Current Conditions -  °F | °C
As of 5:52 AM on Sunday 23 Nov 2014 (Local Time) from KBML Reporting Station
Light Rain Light Rain  
Wind Chill:   Ceiling: 1900
Heat Index:   Visibility: 9mi
Dew Point:   Wind: 6mph
Humidity: 86%   Direction: 340°NNW
Pressure: 29.96"   Gusts: NA
Location:  44.47°N, 71.18°W
Report Text: KBML 231052Z AUTO 34005KT 9SM -RA OVC019 03/01 A2996 RMK AO2 RAE22B50 SLP159 P0001 T00330011
Loading
Personal Weather Stations






























Interactive Weather Map New forecast layout! Learn more

10-Day Weather Forecast

Advertisements
Track Severe Weather on mobile